Morehead, Kentucky
Current Conditions -  °F | °C
As of 12:10 PM on Sunday 23 Nov 2014 (Local Time) from KSYM Reporting Station
Overcast Overcast  
Wind Chill: 61°   Ceiling: 6000
Heat Index: 61°   Visibility: 10mi
Dew Point: 41°   Wind: 6mph
Humidity: 48%   Direction: NA
Pressure: 29.89"   Gusts: 14mph
Location:  38.18°N, 83.44°W
Report Text: KSYM 231710Z AUTO VRB05G12KT 10SM BKN060 OVC070 16/05 A2989 RMK AO2
Loading
Personal Weather Stations






























Interactive Weather Map New forecast layout! Learn more

10-Day Weather Forecast

Advertisements
Track Severe Weather on mobile